sensor_id;sensor_type;location;lat;lon;timestamp;temperature;humidity
80282;DHT22;69586;51.890;-8.458;2024-01-15T11:33:34;20.00;45.20
80282;DHT22;69586;51.890;-8.458;2024-01-15T11:35:59;20.30;44.90
80282;DHT22;69586;51.890;-8.458;2024-01-15T11:38:28;20.50;44.40
80282;DHT22;69586;51.890;-8.458;2024-01-15T11:40:58;20.60;43.20
80282;DHT22;69586;51.890;-8.458;2024-01-15T11:43:25;20.70;43.30
80282;DHT22;69586;51.890;-8.458;2024-01-15T11:45:52;20.90;43.60
80282;DHT22;69586;51.890;-8.458;2024-01-15T11:48:19;21.00;43.30
80282;DHT22;69586;51.890;-8.458;2024-01-15T11:50:49;21.10;43.00
80282;DHT22;69586;51.890;-8.458;2024-01-15T11:55:45;21.10;43.00
80282;DHT22;69586;51.890;-8.458;2024-01-15T11:58:11;21.10;43.00
80282;DHT22;69586;51.890;-8.458;2024-01-15T12:00:42;21.10;43.00
80282;DHT22;69586;51.890;-8.458;2024-01-15T12:03:09;21.10;42.90
80282;DHT22;69586;51.890;-8.458;2024-01-15T12:05:40;21.10;42.20
80282;DHT22;69586;51.890;-8.458;2024-01-15T12:08:07;21.10;42.60
80282;DHT22;69586;51.890;-8.458;2024-01-15T12:10:37;21.10;42.80
80282;DHT22;69586;51.890;-8.458;2024-01-15T12:15:35;21.10;43.00
80282;DHT22;69586;51.890;-8.458;2024-01-15T12:18:02;21.10;43.00
80282;DHT22;69586;51.890;-8.458;2024-01-15T12:20:32;21.00;43.00
80282;DHT22;69586;51.890;-8.458;2024-01-15T12:22:58;21.00;42.90
80282;DHT22;69586;51.890;-8.458;2024-01-15T12:25:24;21.00;42.90
80282;DHT22;69586;51.890;-8.458;2024-01-15T12:27:53;20.90;42.90
80282;DHT22;69586;51.890;-8.458;2024-01-15T12:30:19;20.80;42.10
80282;DHT22;69586;51.890;-8.458;2024-01-15T12:32:45;20.80;42.60
80282;DHT22;69586;51.890;-8.458;2024-01-15T12:35:13;20.70;42.80
80282;DHT22;69586;51.890;-8.458;2024-01-15T12:37:40;20.60;42.90
80282;DHT22;69586;51.890;-8.458;2024-01-15T12:40:10;20.50;42.80
80282;DHT22;69586;51.890;-8.458;2024-01-15T12:42:45;20.50;42.70
80282;DHT22;69586;51.890;-8.458;2024-01-15T12:45:12;20.30;42.80
80282;DHT22;69586;51.890;-8.458;2024-01-15T12:47:41;20.30;42.90
80282;DHT22;69586;51.890;-8.458;2024-01-15T12:50:11;20.10;42.80
80282;DHT22;69586;51.890;-8.458;2024-01-15T12:52:39;20.00;42.80
80282;DHT22;69586;51.890;-8.458;2024-01-15T12:55:06;20.00;42.80
80282;DHT22;69586;51.890;-8.458;2024-01-15T12:57:33;19.80;42.90
80282;DHT22;69586;51.890;-8.458;2024-01-15T12:59:59;19.70;43.00
80282;DHT22;69586;51.890;-8.458;2024-01-15T13:02:25;19.60;43.00
80282;DHT22;69586;51.890;-8.458;2024-01-15T13:04:51;19.50;43.00
80282;DHT22;69586;51.890;-8.458;2024-01-15T13:07:17;19.40;43.20
80282;DHT22;69586;51.890;-8.458;2024-01-15T13:09:43;19.30;43.00
80282;DHT22;69586;51.890;-8.458;2024-01-15T13:12:09;19.10;43.10
80282;DHT22;69586;51.890;-8.458;2024-01-15T13:14:35;19.00;43.10
80282;DHT22;69586;51.890;-8.458;2024-01-15T13:17:02;18.90;43.20
80282;DHT22;69586;51.890;-8.458;2024-01-15T13:19:28;18.80;43.00
80282;DHT22;69586;51.890;-8.458;2024-01-15T13:21:54;18.70;43.40
80282;DHT22;69586;51.890;-8.458;2024-01-15T13:24:21;18.60;43.50
80282;DHT22;69586;51.890;-8.458;2024-01-15T13:26:47;18.50;42.90
80282;DHT22;69586;51.890;-8.458;2024-01-15T13:29:13;18.40;43.10
80282;DHT22;69586;51.890;-8.458;2024-01-15T13:31:40;18.30;43.40
